createdAt,value
2022-09-05T00:02:03.306Z,4.53
2022-09-05T00:08:53.723Z,4.20
2022-09-05T00:15:54.681Z,4.10
2022-09-05T00:24:29.484Z,5.10
2022-09-05T00:31:07.858Z,5.10
2022-09-05T00:37:36.553Z,4.43
2022-09-05T00:44:22.382Z,5.35
2022-09-05T00:51:29.248Z,5.28
2022-09-05T00:58:19.952Z,4.93
2022-09-05T01:05:37.553Z,5.65
2022-09-05T01:12:40.740Z,4.53
2022-09-05T01:19:45.507Z,5.55
2022-09-05T01:26:46.369Z,5.35
2022-09-05T01:33:55.756Z,4.65
2022-09-05T01:41:17.674Z,4.80
2022-09-05T01:48:06.173Z,4.38
2022-09-05T01:55:12.378Z,4.80
2022-09-05T02:02:18.986Z,4.20
2022-09-05T02:09:40.774Z,4.63
2022-09-05T02:16:44.241Z,4.78
2022-09-05T02:23:41.205Z,4.50
2022-09-05T02:30:26.619Z,3.47
2022-09-05T02:37:16.109Z,4.85
2022-09-05T02:45:24.177Z,3.90
2022-09-05T02:57:25.866Z,4.25
2022-09-05T02:59:36.372Z,3.80
2022-09-05T03:07:03.559Z,3.45
2022-09-05T03:14:04.089Z,4.03
2022-09-05T03:21:19.946Z,3.75
2022-09-05T03:28:17.470Z,4.25
2022-09-05T03:35:30.761Z,4.30
2022-09-05T03:42:39.626Z,4.80
2022-09-05T03:53:16.400Z,5.15
2022-09-05T03:57:33.681Z,4.60
2022-09-05T04:08:06.669Z,5.10
2022-09-05T04:11:49.640Z,5.35
2022-09-05T04:18:43.654Z,4.68
2022-09-05T04:25:44.019Z,5.97
2022-09-05T04:32:36.679Z,5.03
2022-09-05T04:39:20.169Z,5.63
2022-09-05T04:46:28.084Z,4.53
2022-09-05T04:53:31.681Z,4.50
2022-09-05T05:06:05.976Z,4.70
2022-09-05T05:08:04.346Z,4.28
2022-09-05T05:17:58.202Z,4.40
2022-09-05T05:22:03.419Z,4.97
2022-09-05T05:29:08.325Z,4.28
2022-09-05T05:35:51.910Z,4.80
2022-09-05T05:42:37.783Z,5.30
2022-09-05T05:50:11.236Z,5.38
2022-09-05T05:57:15.004Z,5.50
2022-09-05T06:04:22.581Z,5.25
2022-09-05T06:15:01.765Z,5.10
2022-09-05T06:18:45.883Z,4.10
2022-09-05T06:25:45.258Z,4.63
2022-09-05T06:32:58.481Z,4.65
2022-09-05T06:39:50.287Z,4.50
2022-09-05T06:46:54.785Z,3.88
2022-09-05T06:53:42.947Z,3.50
2022-09-05T07:00:45.525Z,3.97
2022-09-05T07:07:46.219Z,3.75
2022-09-05T07:14:34.773Z,3.25
2022-09-05T07:21:32.279Z,2.90
2022-09-05T07:28:28.638Z,2.80
2022-09-05T07:35:29.207Z,3.00
2022-09-05T07:42:23.486Z,3.05
2022-09-05T07:49:12.102Z,2.85
2022-09-05T07:56:59.941Z,3.30
2022-09-05T08:03:12.609Z,2.90
2022-09-05T08:10:10.587Z,2.92
2022-09-05T08:16:53.338Z,2.40
2022-09-05T08:23:41.648Z,2.20
2022-09-05T08:30:27.715Z,2.38
2022-09-05T08:37:21.686Z,2.35
2022-09-05T08:46:39.336Z,2.45
2022-09-05T08:51:54.239Z,2.40
2022-09-05T08:59:31.457Z,2.08
2022-09-05T09:06:32.369Z,2.17
2022-09-05T09:13:53.918Z,2.55
2022-09-05T09:20:56.668Z,2.85
2022-09-05T09:28:48.391Z,2.20
2022-09-05T09:35:25.710Z,2.20
2022-09-05T09:42:32.581Z,2.03
2022-09-05T09:49:23.731Z,2.00
2022-09-05T09:56:35.648Z,2.08
2022-09-05T10:08:51.128Z,2.28
2022-09-05T10:11:03.928Z,2.42
2022-09-05T10:17:59.766Z,2.70
2022-09-05T10:25:19.585Z,1.98
2022-09-05T10:35:08.404Z,2.10
2022-09-05T10:39:21.092Z,2.13
2022-09-05T10:46:48.995Z,1.88
2022-09-05T10:53:46.642Z,2.10
2022-09-05T11:02:22.307Z,2.20
2022-09-05T11:07:48.506Z,2.17
2022-09-05T11:14:34.759Z,1.63
2022-09-05T11:21:40.149Z,1.75
2022-09-05T11:28:38.990Z,1.88
2022-09-05T11:39:56.071Z,2.40
2022-09-05T11:43:24.615Z,1.80
2022-09-05T11:50:18.855Z,2.03
2022-09-05T11:57:38.843Z,1.80
2022-09-05T12:04:42.118Z,1.80
2022-09-05T12:11:44.361Z,1.83
2022-09-05T12:18:43.698Z,1.80
2022-09-05T12:27:35.877Z,1.90
2022-09-05T12:36:01.536Z,1.88
2022-09-05T12:41:32.355Z,2.30
2022-09-05T12:47:18.569Z,2.00
2022-09-05T12:54:32.879Z,2.10
2022-09-05T13:03:03.808Z,2.30
2022-09-05T13:08:21.452Z,2.13
2022-09-05T13:15:21.493Z,2.00
2022-09-05T13:22:06.176Z,2.15
2022-09-05T13:29:10.137Z,2.13
2022-09-05T13:38:12.341Z,2.00
2022-09-05T13:43:23.059Z,2.20
2022-09-05T13:50:30.170Z,2.13
2022-09-05T13:58:07.188Z,1.88
2022-09-05T14:05:05.827Z,2.53
2022-09-05T14:12:03.004Z,2.28
2022-09-05T14:19:06.970Z,1.92
2022-09-05T14:25:58.260Z,1.92
2022-09-05T14:37:38.825Z,2.20
2022-09-05T14:40:55.184Z,2.45
2022-09-05T14:47:42.231Z,2.65
2022-09-05T15:02:54.383Z,2.13
2022-09-05T15:09:42.160Z,2.08
2022-09-05T15:15:39.188Z,1.95
2022-09-05T15:22:31.197Z,2.30
2022-09-05T15:29:14.733Z,2.20
2022-09-05T15:35:58.785Z,2.03
2022-09-05T15:43:00.595Z,2.05
2022-09-05T15:49:49.111Z,2.17
2022-09-05T15:56:31.804Z,2.17
2022-09-05T16:05:30.436Z,2.00
2022-09-05T16:10:57.822Z,2.17
2022-09-05T16:23:13.865Z,1.83
2022-09-05T16:24:59.849Z,2.10
2022-09-05T16:31:47.422Z,2.13
2022-09-05T16:38:50.093Z,2.42
2022-09-05T16:45:53.115Z,2.20
2022-09-05T16:53:20.907Z,2.47
2022-09-05T17:00:09.543Z,2.20
2022-09-05T17:07:12.186Z,3.38
2022-09-05T17:13:57.446Z,2.70
2022-09-05T17:20:42.184Z,2.80
2022-09-05T17:29:26.023Z,3.40
2022-09-05T17:35:16.597Z,2.78
2022-09-05T17:42:28.069Z,3.10
2022-09-05T17:49:20.074Z,3.50
2022-09-05T17:56:05.242Z,3.50
2022-09-05T18:02:56.642Z,3.40
2022-09-05T18:09:48.030Z,3.72
2022-09-05T18:17:35.534Z,2.83
2022-09-05T18:24:02.355Z,3.22
2022-09-05T18:30:45.155Z,3.33
2022-09-05T18:37:37.052Z,3.10
2022-09-05T18:44:21.106Z,3.10
2022-09-05T18:51:15.563Z,4.18
2022-09-05T18:58:10.888Z,3.40
2022-09-05T19:04:57.194Z,3.60
2022-09-05T19:11:56.781Z,4.00
2022-09-05T19:19:07.946Z,4.20
2022-09-05T19:25:58.910Z,3.63
2022-09-05T19:37:08.888Z,3.85
2022-09-05T19:42:49.501Z,3.83
2022-09-05T19:47:55.771Z,4.90
2022-09-05T19:54:26.723Z,4.22
2022-09-05T20:01:15.992Z,4.28
2022-09-05T20:07:59.664Z,3.90
2022-09-05T20:14:42.644Z,4.10
2022-09-05T20:21:28.686Z,4.13
2022-09-05T20:28:15.571Z,4.05
2022-09-05T20:40:47.112Z,4.10
2022-09-05T20:43:15.901Z,4.70
2022-09-05T20:54:05.407Z,4.72
2022-09-05T20:56:27.916Z,5.13
2022-09-05T21:03:15.871Z,4.53
2022-09-05T21:10:06.428Z,5.05
2022-09-05T21:17:15.006Z,6.07
2022-09-05T21:24:17.797Z,5.32
2022-09-05T21:31:04.583Z,4.57
2022-09-05T21:37:49.512Z,4.97
2022-09-05T21:47:41.628Z,4.75
2022-09-05T21:51:37.751Z,4.93
2022-09-05T21:59:25.143Z,5.05
2022-09-05T22:05:25.188Z,4.10
2022-09-05T22:12:17.483Z,4.70
2022-09-05T22:19:11.404Z,5.18
2022-09-05T22:25:54.011Z,4.57
2022-09-05T22:32:36.468Z,4.45
2022-09-05T22:39:36.339Z,4.97
2022-09-05T22:46:20.014Z,4.07
2022-09-05T22:53:08.092Z,5.45
2022-09-05T22:59:54.430Z,6.05
2022-09-05T23:06:40.774Z,5.50
2022-09-05T23:13:27.706Z,5.30
2022-09-05T23:20:14.841Z,5.53
2022-09-05T23:27:19.551Z,5.80
2022-09-05T23:34:06.431Z,6.28
2022-09-05T23:40:53.581Z,5.70
2022-09-05T23:47:40.022Z,5.32
2022-09-05T23:54:24.042Z,5.53
